Time;durP1;ratioP1;P1;durP2;ratioP2;P2;SDS_P1;SDS_P2;PMS_P1;PMS_P2;Temp;Humidity;BMP_temperature;BMP_pressure;BME280_temperature;BME280_humidity;BME280_pressure;Samples;Min_cycle;Max_cycle;Signal;HPM_P1;HPM_P2
2021/06/10 00:00:22;;;;;;;32.08;10.45;;;;;;;14.57;100.00;100217.70;1712809;82;21094;-89
2021/06/10 00:02:49;;;;;;;26.20;9.90;;;;;;;14.53;100.00;100215.58;1712436;82;21051;-88
2021/06/10 00:05:19;;;;;;;29.60;10.25;;;;;;;14.48;100.00;100218.33;1712630;83;20948;-87
2021/06/10 00:07:46;;;;;;;28.38;10.93;;;;;;;14.48;100.00;100218.88;1712639;83;21149;-89
2021/06/10 00:10:15;;;;;;;32.17;10.53;;;;;;;14.44;100.00;100218.67;1712680;83;20992;-89
2021/06/10 00:12:42;;;;;;;27.42;11.20;;;;;;;14.44;100.00;100221.39;1713060;83;21056;-89
2021/06/10 00:15:12;;;;;;;30.25;12.28;;;;;;;14.41;100.00;100219.80;1712915;82;21012;-89
2021/06/10 00:17:39;;;;;;;31.00;10.63;;;;;;;14.38;100.00;100221.18;1698473;83;21032;-88
2021/06/10 00:20:08;;;;;;;27.52;10.90;;;;;;;14.35;100.00;100223.68;1712764;83;21950;-88
2021/06/10 00:22:34;;;;;;;27.65;9.93;;;;;;;14.27;100.00;100221.90;1712648;82;21017;-89
2021/06/10 00:25:00;;;;;;;36.50;11.97;;;;;;;14.27;100.00;100226.52;1712644;83;20996;-89
2021/06/10 00:27:27;;;;;;;30.20;10.72;;;;;;;14.24;100.00;100218.98;1710076;84;21028;-89
2021/06/10 00:29:52;;;;;;;28.47;10.60;;;;;;;14.22;100.00;100221.97;1710166;84;21056;-89
2021/06/10 00:32:19;;;;;;;27.62;10.88;;;;;;;14.19;100.00;100219.05;1709888;84;21938;-88
2021/06/10 00:34:45;;;;;;;30.15;11.53;;;;;;;14.17;100.00;100216.61;1709854;84;21060;-89
2021/06/10 00:37:13;;;;;;;29.60;9.83;;;;;;;14.13;100.00;100214.80;1709781;84;21024;-89
2021/06/10 00:39:41;;;;;;;29.65;10.48;;;;;;;14.12;100.00;100220.77;1709614;83;21031;-88
2021/06/10 00:42:09;;;;;;;29.67;11.33;;;;;;;14.10;100.00;100221.60;1710677;83;21036;-90
2021/06/10 00:44:35;;;;;;;26.42;10.98;;;;;;;14.06;100.00;100214.61;1709782;83;21037;-88
2021/06/10 00:47:03;;;;;;;37.38;12.00;;;;;;;14.05;100.00;100219.75;1709703;84;20992;-88
2021/06/10 00:49:28;;;;;;;34.00;11.12;;;;;;;14.06;100.00;100224.66;1709664;83;22255;-89
2021/06/10 00:51:55;;;;;;;31.77;10.72;;;;;;;14.03;100.00;100221.97;1709954;83;20897;-89
2021/06/10 00:54:21;;;;;;;29.63;11.55;;;;;;;14.00;100.00;100225.27;1712821;83;20991;-89
2021/06/10 00:56:49;;;;;;;31.95;11.48;;;;;;;14.00;100.00;100223.91;1712714;83;21103;-89
2021/06/10 00:59:15;;;;;;;27.82;10.90;;;;;;;14.01;100.00;100220.65;1712599;82;20937;-89
2021/06/10 01:01:41;;;;;;;26.87;10.95;;;;;;;13.97;100.00;100218.25;1712739;83;21016;-90
2021/06/10 01:04:07;;;;;;;30.20;10.70;;;;;;;13.98;100.00;100221.23;1712595;82;20976;-89
2021/06/10 01:07:03;;;;;;;29.90;11.93;;;;;;;13.95;100.00;100223.97;1712732;82;20984;-89
2021/06/10 01:10:04;;;;;;;33.02;11.60;;;;;;;13.95;100.00;100219.91;1712807;82;21547;-88
2021/06/10 01:12:52;;;;;;;34.90;10.93;;;;;;;13.91;100.00;100223.48;1712714;82;21004;-90
2021/06/10 01:15:19;;;;;;;25.12;10.85;;;;;;;13.85;100.00;100225.44;1709354;83;21059;-89
2021/06/10 01:17:47;;;;;;;31.75;11.25;;;;;;;13.82;100.00;100227.37;1709696;84;20985;-89
2021/06/10 01:20:18;;;;;;;34.48;10.98;;;;;;;13.84;100.00;100232.77;1709624;84;21060;-88
2021/06/10 01:22:58;;;;;;;33.60;10.53;;;;;;;13.82;100.00;100233.63;1709727;84;21508;-89
2021/06/10 01:25:45;;;;;;;36.13;12.95;;;;;;;13.84;100.00;100233.32;1669591;86;21087;-89
2021/06/10 01:28:21;;;;;;;26.95;10.58;;;;;;;13.81;100.00;100232.00;1730070;82;20940;-88
2021/06/10 01:31:00;;;;;;;35.50;12.60;;;;;;;13.78;100.00;100221.74;1731790;82;21008;-88
2021/06/10 01:33:40;;;;;;;31.42;12.98;;;;;;;13.78;100.00;100223.09;1732541;82;21119;-89
2021/06/10 01:36:11;;;;;;;36.90;12.07;;;;;;;13.81;100.00;100217.66;1732439;82;21325;-90
2021/06/10 01:38:40;;;;;;;31.15;12.20;;;;;;;13.84;100.00;100212.45;1708191;83;21026;-90
2021/06/10 01:41:07;;;;;;;31.50;13.43;;;;;;;13.83;100.00;100214.92;1707955;84;21000;-89
2021/06/10 01:43:39;;;;;;;33.75;12.18;;;;;;;13.84;100.00;100220.58;1708072;84;21491;-89
2021/06/10 01:46:07;;;;;;;43.40;14.23;;;;;;;13.83;100.00;100229.81;1708043;84;21003;-89
2021/06/10 01:48:35;;;;;;;34.30;13.90;;;;;;;13.85;100.00;100224.92;1707926;84;22048;-89
2021/06/10 01:51:04;;;;;;;39.23;11.95;;;;;;;13.85;100.00;100238.47;1707744;83;21062;-89
2021/06/10 01:53:31;;;;;;;37.05;12.60;;;;;;;13.87;100.00;100238.16;1708027;84;21090;-89
2021/06/10 01:56:00;;;;;;;42.50;13.43;;;;;;;13.88;100.00;100237.05;1707991;84;21046;-89
2021/06/10 01:58:27;;;;;;;35.17;12.07;;;;;;;13.90;100.00;100242.19;1708146;84;21628;-90
2021/06/10 02:00:57;;;;;;;43.25;12.35;;;;;;;13.89;100.00;100244.10;1684345;84;21569;-90
2021/06/10 02:03:24;;;;;;;43.17;13.72;;;;;;;13.91;100.00;100241.89;1758444;81;21054;-90
2021/06/10 02:05:51;;;;;;;33.80;12.78;;;;;;;13.93;100.00;100234.28;1746669;81;21042;-90
2021/06/10 02:08:19;;;;;;;34.83;13.88;;;;;;;13.96;100.00;100244.53;1772208;81;20964;-88
2021/06/10 02:10:49;;;;;;;43.83;15.38;;;;;;;14.01;100.00;100241.77;1772054;81;21026;-89
2021/06/10 02:13:18;;;;;;;33.90;12.80;;;;;;;14.08;100.00;100242.20;1772404;81;21310;-90
2021/06/10 02:15:45;;;;;;;35.15;13.35;;;;;;;14.13;100.00;100239.19;1772387;81;21124;-90
2021/06/10 02:18:13;;;;;;;41.30;14.50;;;;;;;14.15;100.00;100235.61;1772398;81;21043;-89
2021/06/10 02:20:40;;;;;;;39.90;14.10;;;;;;;14.11;100.00;100221.84;1772202;81;21062;-89
2021/06/10 02:23:07;;;;;;;47.88;15.80;;;;;;;14.30;100.00;100231.36;1772352;81;21054;-90
2021/06/10 02:25:35;;;;;;;40.08;14.23;;;;;;;14.38;100.00;100236.09;1772289;81;21837;-90
2021/06/10 02:28:06;;;;;;;35.25;13.38;;;;;;;14.45;100.00;100228.97;1772356;81;21058;-89
2021/06/10 02:30:33;;;;;;;39.75;13.22;;;;;;;14.54;100.00;100225.87;1771994;81;21015;-90
2021/06/10 02:32:59;;;;;;;42.17;13.55;;;;;;;14.65;100.00;100222.45;1772290;81;21051;-90
2021/06/10 02:35:25;;;;;;;41.35;13.62;;;;;;;14.75;100.00;100219.56;1772151;81;21059;-89
2021/06/10 02:37:57;;;;;;;38.08;13.03;;;;;;;14.87;100.00;100214.47;1772426;81;21075;-89
2021/06/10 02:40:42;;;;;;;35.25;12.60;;;;;;;14.96;100.00;100218.66;1771887;80;21007;-90
2021/06/10 02:43:10;;;;;;;36.00;13.15;;;;;;;15.09;100.00;100210.28;1773401;80;21006;-89
2021/06/10 02:45:38;;;;;;;37.05;13.38;;;;;;;15.29;100.00;100215.89;1772438;80;20967;-89
2021/06/10 02:48:06;;;;;;;33.55;13.28;;;;;;;16.17;100.00;100219.82;1772453;80;21038;-90
2021/06/10 02:50:34;;;;;;;41.00;15.03;;;;;;;16.17;100.00;100219.82;1772267;80;21120;-90
2021/06/10 02:53:01;;;;;;;35.83;13.93;;;;;;;16.83;100.00;100222.92;1772294;80;21022;-90
2021/06/10 02:55:30;;;;;;;30.82;13.13;;;;;;;17.52;100.00;100230.63;1772441;80;21007;-89
2021/06/10 02:57:59;;;;;;;37.03;13.95;;;;;;;18.16;100.00;100233.13;1772460;80;21018;-89
2021/06/10 03:00:33;;;;;;;40.12;14.47;;;;;;;18.56;100.00;100231.62;1772354;80;20987;-86
2021/06/10 03:03:00;;;;;;;;;;;;;;;18.56;100.00;100229.42;1775010;80;21125;-90
2021/06/10 03:05:29;;;;;;;36.53;14.18;;;;;;;18.46;100.00;100225.67;1772528;80;20143;-88
2021/06/10 03:07:56;;;;;;;40.67;15.03;;;;;;;18.34;100.00;100227.68;1769089;81;20999;-89
2021/06/10 03:10:27;;;;;;;38.05;14.28;;;;;;;18.23;100.00;100224.45;1772489;80;21019;-89
2021/06/10 03:12:54;;;;;;;34.98;13.70;;;;;;;18.24;100.00;100228.81;1772378;81;21015;-90
2021/06/10 03:15:22;;;;;;;36.13;13.80;;;;;;;18.47;100.00;100234.09;1772485;80;21132;-89
2021/06/10 03:17:51;;;;;;;40.70;14.30;;;;;;;18.85;100.00;100234.23;1772243;80;21042;-89
2021/06/10 03:20:17;;;;;;;41.63;14.13;;;;;;;19.47;100.00;100239.22;1750676;81;21010;-90
2021/06/10 03:22:43;;;;;;;35.80;13.58;;;;;;;20.09;100.00;100231.47;1772364;80;21510;-89
2021/06/10 03:25:10;;;;;;;35.73;12.40;;;;;;;20.76;100.00;100227.72;1772406;81;21019;-89
2021/06/10 03:27:37;;;;;;;30.20;12.58;;;;;;;21.36;100.00;100224.13;1768830;81;21315;-90
2021/06/10 03:30:09;;;;;;;26.07;12.53;;;;;;;22.03;100.00;100222.47;1772309;80;21408;-90
2021/06/10 03:32:35;;;;;;;34.43;13.25;;;;;;;22.77;100.00;100228.56;1772522;80;21015;-90
2021/06/10 03:35:03;;;;;;;28.92;12.68;;;;;;;23.46;100.00;100222.29;1751064;81;21006;-89
2021/06/10 03:37:30;;;;;;;29.05;12.35;;;;;;;24.19;100.00;100220.84;1772421;80;20995;-90
2021/06/10 03:39:57;;;;;;;30.70;12.18;;;;;;;24.87;100.00;100226.34;1772231;80;21131;-91
2021/06/10 03:42:24;;;;;;;26.97;12.68;;;;;;;25.31;100.00;100219.85;1750858;81;21474;-89
2021/06/10 03:44:50;;;;;;;30.25;12.40;;;;;;;25.95;100.00;100227.56;1772626;80;20999;-92
2021/06/10 03:47:17;;;;;;;29.48;11.33;;;;;;;26.64;100.00;100221.73;1772661;80;20991;-89
2021/06/10 03:49:44;;;;;;;23.27;10.18;;;;;;;27.22;100.00;100223.92;1772644;80;21033;-91
2021/06/10 03:52:10;;;;;;;25.25;12.10;;;;;;;28.23;100.00;100223.41;1772148;80;21977;-90
2021/06/10 03:54:37;;;;;;;25.75;10.90;;;;;;;29.06;100.00;100219.55;1772311;80;21018;-92
2021/06/10 03:57:04;;;;;;;20.90;9.85;;;;;;;29.56;96.07;100219.53;1772644;81;21034;-90
2021/06/10 03:59:30;;;;;;;25.68;11.12;;;;;;;29.93;94.17;100221.09;1772508;80;21459;-91
2021/06/10 04:01:56;;;;;;;20.12;10.25;;;;;;;30.50;88.43;100218.93;1768919;81;20851;-92
2021/06/10 04:04:23;;;;;;;22.27;10.98;;;;;;;31.15;81.83;100221.30;1772407;80;21862;-92
2021/06/10 04:06:49;;;;;;;17.77;10.20;;;;;;;31.26;74.47;100223.41;1772169;80;20979;-92
2021/06/10 04:09:15;;;;;;;20.15;9.53;;;;;;;31.38;77.01;100224.92;1772846;81;20895;-92
2021/06/10 04:11:41;;;;;;;20.40;9.15;;;;;;;31.83;73.12;100220.73;1772665;80;20848;-93
2021/06/10 04:14:07;;;;;;;13.48;8.03;;;;;;;31.99;67.59;100222.36;1772757;80;21487;-91
2021/06/10 04:16:33;;;;;;;13.00;7.55;;;;;;;32.43;67.38;100229.00;1772610;80;21055;-91
2021/06/10 04:18:59;;;;;;;12.23;7.33;;;;;;;32.50;62.41;100230.34;1772672;80;21094;-93
2021/06/10 04:21:25;;;;;;;14.50;7.28;;;;;;;32.68;60.76;100226.48;1772690;80;21058;-93
2021/06/10 04:23:51;;;;;;;13.30;7.33;;;;;;;32.91;58.58;100230.73;1772630;80;20863;-93
2021/06/10 04:26:18;;;;;;;14.90;8.00;;;;;;;33.12;57.57;100226.05;1772736;80;21003;-94
2021/06/10 04:28:45;;;;;;;13.00;7.67;;;;;;;33.25;58.45;100227.05;1772688;80;21893;-93
2021/06/10 04:31:13;;;;;;;11.25;7.70;;;;;;;33.70;53.87;100219.70;1772488;81;21447;-94
2021/06/10 04:33:39;;;;;;;15.18;7.92;;;;;;;33.88;52.65;100221.54;1772628;81;21003;-94
2021/06/10 04:36:06;;;;;;;13.58;7.40;;;;;;;34.00;52.79;100224.92;1772445;80;20837;-94
2021/06/10 04:38:32;;;;;;;14.95;7.70;;;;;;;34.54;51.61;100226.85;1772573;81;21039;-94
2021/06/10 04:40:58;;;;;;;18.07;9.00;;;;;;;35.20;51.39;100227.73;1768691;80;21522;-93
2021/06/10 04:43:24;;;;;;;14.18;8.30;;;;;;;35.79;47.86;100231.43;1760674;81;20968;-94
2021/06/10 04:49:55;;;;;;;14.03;8.05;;;;;;;35.76;45.42;100226.71;1772384;81;21034;-93
2021/06/10 04:52:21;;;;;;;13.00;7.85;;;;;;;35.96;43.88;100232.17;1772646;80;21468;-92
2021/06/10 04:54:47;;;;;;;10.85;7.37;;;;;;;35.43;43.33;100231.57;1772932;80;21305;-92
2021/06/10 04:57:14;;;;;;;11.80;7.60;;;;;;;34.99;46.88;100229.63;1773528;80;21696;-94
2021/06/10 05:00:00;;;;;;;12.78;7.22;;;;;;;35.26;45.03;100228.77;1772439;80;20955;-94
2021/06/10 05:02:25;;;;;;;12.93;7.78;;;;;;;35.99;44.70;100208.84;1772498;80;21014;-94
2021/06/10 05:04:52;;;;;;;14.33;7.70;;;;;;;35.99;44.70;100208.84;1772418;80;21066;-95
2021/06/10 05:07:32;;;;;;;11.97;7.35;;;;;;;36.71;43.25;100236.23;1772638;80;21141;-94
2021/06/10 05:09:59;;;;;;;11.03;7.15;;;;;;;37.36;41.63;100228.74;1772801;80;21050;-87
2021/06/10 05:12:26;;;;;;;10.65;7.08;;;;;;;37.98;38.79;100224.63;1768186;80;21007;-87
2021/06/10 05:14:52;;;;;;;9.03;6.72;;;;;;;37.29;39.15;100225.53;1755788;80;21015;-87
2021/06/10 05:17:18;;;;;;;10.32;6.60;;;;;;;36.84;40.62;100227.98;1737034;81;21518;-87
2021/06/10 05:19:44;;;;;;;10.55;6.80;;;;;;;37.08;41.65;100222.04;1734630;81;21270;-87
2021/06/10 05:22:10;;;;;;;12.15;6.53;;;;;;;37.54;40.08;100221.13;1755976;81;21021;-87
2021/06/10 05:24:36;;;;;;;9.15;6.95;;;;;;;37.85;39.20;100221.83;1756192;80;20963;-86
2021/06/10 05:27:06;;;;;;;13.95;6.60;;;;;;;38.25;38.84;100219.17;1756221;80;20856;-86
2021/06/10 05:29:31;;;;;;;13.30;5.92;;;;;;;38.68;38.62;100216.73;1761507;81;21054;-85
2021/06/10 05:31:56;;;;;;;10.15;5.92;;;;;;;39.21;37.61;100223.04;1757577;80;21070;-84
2021/06/10 05:34:24;;;;;;;8.20;6.05;;;;;;;39.35;35.89;100223.07;1757154;80;20911;-84
2021/06/10 05:36:49;;;;;;;9.30;6.17;;;;;;;39.11;36.26;100224.26;1769549;80;21763;-85
2021/06/10 05:39:15;;;;;;;9.85;5.60;;;;;;;39.56;36.25;100219.17;1765457;80;20860;-87
2021/06/10 05:41:41;;;;;;;9.98;5.78;;;;;;;39.85;35.40;100222.95;1755935;80;20920;-83
2021/06/10 05:44:08;;;;;;;8.83;5.72;;;;;;;39.90;34.57;100219.51;1762880;80;21065;-84
2021/06/10 05:46:34;;;;;;;7.92;5.33;;;;;;;40.06;34.35;100222.61;1772570;81;21022;-84
2021/06/10 05:49:00;;;;;;;7.55;5.03;;;;;;;40.28;33.88;100220.40;1772328;80;20958;-83
2021/06/10 05:51:26;;;;;;;5.75;4.83;;;;;;;40.35;33.71;100222.09;1774566;79;20835;-84
2021/06/10 05:53:52;;;;;;;11.03;5.50;;;;;;;40.64;33.76;100220.14;1775234;80;21041;-84
2021/06/10 05:56:18;;;;;;;9.00;5.47;;;;;;;41.14;32.45;100218.34;1765227;79;21549;-83
2021/06/10 05:58:44;;;;;;;9.58;6.12;;;;;;;40.82;32.64;100222.09;1761320;81;20954;-83
2021/06/10 06:01:10;;;;;;;7.95;6.00;;;;;;;40.43;34.12;100222.56;1772259;81;21010;-83
2021/06/10 06:03:36;;;;;;;7.97;6.05;;;;;;;40.33;33.39;100216.13;1766562;80;20878;-85
2021/06/10 06:06:02;;;;;;;10.98;5.85;;;;;;;40.73;32.72;100217.27;1752598;81;21068;-83
2021/06/10 06:08:30;;;;;;;9.38;5.60;;;;;;;41.01;31.56;100208.66;1750034;80;21314;-84
2021/06/10 06:10:56;;;;;;;11.88;6.20;;;;;;;41.24;31.54;100205.08;1765701;80;21022;-85
2021/06/10 06:13:25;;;;;;;7.42;5.67;;;;;;;41.55;31.58;100211.62;1765300;81;21449;-85
2021/06/10 06:15:56;;;;;;;8.28;6.53;;;;;;;41.41;31.40;100212.47;1753495;81;21483;-82
2021/06/10 06:18:22;;;;;;;6.75;5.00;;;;;;;41.44;31.14;100210.72;1759684;81;21084;-90
2021/06/10 06:20:48;;;;;;;6.03;4.78;;;;;;;41.19;32.10;100210.61;1764356;79;21059;-84
2021/06/10 06:23:15;;;;;;;7.10;4.75;;;;;;;41.66;30.58;100209.80;1805457;79;21007;-85
2021/06/10 06:25:42;;;;;;;8.55;4.95;;;;;;;41.39;30.54;100209.36;1809787;79;20956;-85
2021/06/10 06:28:08;;;;;;;6.03;4.58;;;;;;;41.29;30.91;100214.92;1783552;79;21571;-86
2021/06/10 06:30:34;;;;;;;5.17;4.62;;;;;;;41.35;30.70;100217.23;1761049;81;20975;-86
2021/06/10 06:32:59;;;;;;;6.15;4.47;;;;;;;41.59;30.18;100223.52;1756952;80;21164;-84
2021/06/10 06:35:26;;;;;;;4.20;3.80;;;;;;;41.70;30.82;100216.67;1760149;81;20824;-81
2021/06/10 06:37:52;;;;;;;4.67;3.52;;;;;;;41.96;29.27;100219.77;1765597;79;21043;-84
2021/06/10 06:40:23;;;;;;;3.83;2.70;;;;;;;42.03;28.25;100217.17;1780217;78;20868;-85
2021/06/10 06:42:46;;;;;;;4.28;2.90;;;;;;;41.85;28.74;100215.28;1769197;81;20956;-83
2021/06/10 06:45:13;;;;;;;6.55;3.25;;;;;;;41.00;28.06;100220.58;1772460;80;21182;-85
2021/06/10 06:47:39;;;;;;;4.35;3.02;;;;;;;39.77;29.82;100223.11;1772412;80;21063;-84
2021/06/10 06:50:06;;;;;;;3.10;2.75;;;;;;;39.73;28.83;100214.15;1751193;81;20979;-84
2021/06/10 06:52:32;;;;;;;6.53;3.10;;;;;;;39.77;29.74;100214.05;1773067;80;21609;-84
2021/06/10 06:54:57;;;;;;;3.95;3.33;;;;;;;39.70;28.42;100217.13;1772678;80;20987;-84
2021/06/10 06:57:23;;;;;;;3.20;2.90;;;;;;;39.23;30.34;100220.52;1772595;80;21557;-83
2021/06/10 06:59:49;;;;;;;3.40;3.10;;;;;;;39.30;28.20;100225.12;1753402;80;20863;-83
2021/06/10 07:02:15;;;;;;;3.65;3.35;;;;;;;39.16;29.61;100228.52;1752189;81;20959;-82
2021/06/10 07:04:41;;;;;;;3.60;3.30;;;;;;;39.73;29.12;100227.48;1754650;80;21021;-84
2021/06/10 07:07:07;;;;;;;4.35;3.50;;;;;;;40.39;28.84;100224.92;1758324;79;20853;-82
2021/06/10 07:09:33;;;;;;;4.17;3.37;;;;;;;41.03;28.28;100226.68;1759666;79;21140;-88
2021/06/10 07:11:59;;;;;;;3.85;3.50;;;;;;;41.41;28.04;100230.08;1738465;81;20999;-85
2021/06/10 07:14:25;;;;;;;3.30;3.00;;;;;;;41.77;26.86;100224.80;1752207;81;21045;-84
2021/06/10 07:16:51;;;;;;;3.67;3.37;;;;;;;41.49;27.22;100233.51;1747054;79;20871;-84
2021/06/10 07:19:17;;;;;;;4.62;3.45;;;;;;;41.48;27.88;100231.95;1760819;80;20931;-86
2021/06/10 07:21:49;;;;;;;3.67;3.35;;;;;;;41.88;27.03;100224.98;1788562;79;21111;-86
2021/06/10 07:24:15;;;;;;;4.03;3.27;;;;;;;41.87;26.32;100223.44;1809866;78;21448;-86
2021/06/10 07:26:43;;;;;;;4.05;3.33;;;;;;;41.98;27.35;100222.26;1775294;79;20971;-87
2021/06/10 07:29:14;;;;;;;3.08;2.77;;;;;;;42.49;26.65;100215.28;1754931;80;21015;-84
2021/06/10 07:31:40;;;;;;;4.28;3.40;;;;;;;43.13;26.55;100217.30;1759667;81;20992;-86
2021/06/10 07:34:06;;;;;;;5.05;3.22;;;;;;;42.80;26.77;100214.72;1759239;79;21884;-84
2021/06/10 07:36:36;;;;;;;4.45;3.60;;;;;;;42.48;26.66;100218.75;1787858;79;20931;-85
2021/06/10 07:39:05;;;;;;;3.55;3.15;;;;;;;42.29;25.72;100215.30;1713733;81;21042;-86
2021/06/10 07:41:31;;;;;;;5.37;3.50;;;;;;;41.96;26.03;100214.88;1655203;86;21030;-88
2021/06/10 07:43:57;;;;;;;4.55;3.20;;;;;;;41.79;26.59;100225.08;1653631;85;21112;-87
2021/06/10 07:46:24;;;;;;;4.50;2.75;;;;;;;42.36;26.04;100217.79;1657772;86;21127;-87
2021/06/10 07:48:50;;;;;;;7.17;2.80;;;;;;;42.57;25.30;100217.22;1653535;86;21620;-86
2021/06/10 07:51:16;;;;;;;4.97;3.08;;;;;;;41.89;25.08;100223.77;1660592;85;20896;-86
2021/06/10 07:53:42;;;;;;;7.65;3.08;;;;;;;41.02;26.79;100221.52;1666951;85;20900;-86
2021/06/10 07:56:08;;;;;;;3.90;3.00;;;;;;;40.80;27.14;100221.78;1654027;86;21606;-87
2021/06/10 07:58:35;;;;;;;2.83;2.62;;;;;;;41.12;26.86;100215.97;1654331;86;21308;-86
2021/06/10 08:01:02;;;;;;;5.10;2.60;;;;;;;41.09;26.71;100226.84;1654253;86;21095;-86
2021/06/10 08:03:28;;;;;;;6.60;2.70;;;;;;;40.18;27.31;100223.08;1654343;86;21034;-86
2021/06/10 08:05:56;;;;;;;4.12;2.52;;;;;;;39.44;27.54;100222.30;1678458;84;20977;-84
2021/06/10 08:08:26;;;;;;;6.87;2.47;;;;;;;38.62;27.17;100223.59;1694728;84;21527;-86
2021/06/10 08:10:54;;;;;;;6.50;2.42;;;;;;;37.48;29.62;100229.35;1694568;84;21094;-85
2021/06/10 08:13:24;;;;;;;5.62;2.52;;;;;;;36.62;31.47;100229.89;1694839;84;21078;-85
2021/06/10 08:15:53;;;;;;;5.60;2.62;;;;;;;35.80;33.43;100223.21;1659700;86;21088;-85
2021/06/10 08:18:19;;;;;;;5.40;2.80;;;;;;;35.12;33.05;100222.14;1634269;86;21100;-85
2021/06/10 08:20:45;;;;;;;5.53;2.25;;;;;;;34.59;34.67;100223.55;1662786;86;20961;-85
2021/06/10 08:23:12;;;;;;;5.47;2.27;;;;;;;34.24;35.27;100222.27;1662694;86;21149;-86
2021/06/10 08:25:43;;;;;;;3.47;2.52;;;;;;;33.82;35.72;100218.28;1662892;86;21591;-84
2021/06/10 08:28:05;;;;;;;7.67;2.65;;;;;;;33.58;37.46;100215.52;1659089;86;21088;-85
2021/06/10 08:30:31;;;;;;;8.20;2.52;;;;;;;34.48;36.75;100208.18;1662742;86;20897;-89
2021/06/10 08:33:02;;;;;;;9.63;2.30;;;;;;;34.81;33.45;100211.23;1662765;86;21149;-85
2021/06/10 08:35:28;;;;;;;3.67;2.67;;;;;;;34.36;34.32;100206.22;1568868;90;21556;-85
2021/06/10 08:37:54;;;;;;;3.33;2.30;;;;;;;33.61;34.28;100204.10;1633633;86;21025;-86
2021/06/10 08:40:20;;;;;;;4.55;2.20;;;;;;;33.98;33.61;100200.20;1663837;85;20875;-85
2021/06/10 08:42:47;;;;;;;3.25;2.17;;;;;;;33.98;33.61;100200.20;1664000;86;21018;-85
2021/06/10 08:45:17;;;;;;;2.77;2.22;;;;;;;34.62;32.26;100198.07;1664085;86;21077;-85
2021/06/10 08:47:47;;;;;;;5.03;2.40;;;;;;;35.14;33.29;100193.06;1663942;85;21146;-85
2021/06/10 08:50:22;;;;;;;3.27;2.70;;;;;;;35.97;32.39;100194.47;1663696;86;21095;-85
2021/06/10 08:52:46;;;;;;;2.27;2.00;;;;;;;37.19;31.82;100191.56;1654699;86;21560;-85
2021/06/10 08:55:13;;;;;;;5.35;2.40;;;;;;;37.82;31.35;100188.98;1658588;85;21063;-84
2021/06/10 08:57:40;;;;;;;2.47;2.27;;;;;;;37.70;31.09;100186.41;1657968;85;21034;-84
2021/06/10 09:00:10;;;;;;;4.83;2.30;;;;;;;37.07;31.09;100185.36;1658479;86;21275;-82
2021/06/10 09:02:37;;;;;;;7.55;2.27;;;;;;;36.37;31.76;100189.30;1658208;86;21011;-86
2021/06/10 09:05:07;;;;;;;5.83;2.08;;;;;;;36.32;33.12;100187.05;1627789;86;21023;-86
2021/06/10 09:07:42;;;;;;;4.33;2.42;;;;;;;36.68;33.14;100186.59;1642408;87;21589;-85
2021/06/10 09:10:09;;;;;;;3.47;2.30;;;;;;;37.11;31.24;100176.17;1651480;86;20935;-84
2021/06/10 09:12:57;;;;;;;4.20;2.33;;;;;;;37.78;32.42;100167.25;1652053;86;21281;-85
2021/06/10 09:15:28;;;;;;;3.10;2.22;;;;;;;38.40;30.33;100165.93;1651619;86;21105;-85
2021/06/10 09:17:55;;;;;;;4.22;2.05;;;;;;;38.60;31.02;100169.77;1632219;86;21038;-86
2021/06/10 09:20:27;;;;;;;3.72;2.20;;;;;;;39.09;30.13;100170.38;1632142;88;21053;-84
2021/06/10 09:23:09;;;;;;;;;;;;;;;38.98;30.33;100178.52;1634553;88;21090;-83
2021/06/10 09:25:35;;;;;;;3.00;2.35;;;;;;;39.17;29.95;100168.83;1632498;87;22415;-85
2021/06/10 09:28:05;;;;;;;2.42;2.17;;;;;;;39.36;28.97;100164.62;1632381;87;21204;-84
2021/06/10 09:30:42;;;;;;;9.88;2.45;;;;;;;38.74;29.02;100164.16;1632394;87;21049;-84
2021/06/10 09:33:13;;;;;;;2.55;2.10;;;;;;;37.47;30.12;100162.31;1628220;88;21092;-84
2021/06/10 09:35:42;;;;;;;3.65;2.58;;;;;;;36.51;31.48;100173.27;1639478;86;21050;-85
2021/06/10 09:38:15;;;;;;;2.27;1.90;;;;;;;35.81;32.49;100165.87;1653293;86;21938;-84
2021/06/10 09:40:40;;;;;;;;;;;;;;;35.59;32.87;100168.52;1611522;87;21136;-85
2021/06/10 09:43:07;;;;;;;3.27;2.25;;;;;;;35.03;33.11;100160.29;1609413;89;20236;-80
2021/06/10 09:45:33;;;;;;;3.08;2.22;;;;;;;34.48;33.87;100148.80;1609064;89;21106;-82
2021/06/10 09:48:04;;;;;;;8.93;2.37;;;;;;;34.32;34.57;100145.34;1609333;89;21149;-82
2021/06/10 09:50:46;;;;;;;3.85;2.60;;;;;;;34.72;34.97;100145.87;1609078;89;21608;-83
2021/06/10 09:53:22;;;;;;;5.83;2.37;;;;;;;34.99;32.86;100141.40;1618166;88;21094;-85
2021/06/10 09:55:58;;;;;;;3.77;2.52;;;;;;;34.62;33.63;100144.09;1660640;86;21046;-85
2021/06/10 09:58:32;;;;;;;5.40;2.58;;;;;;;34.72;33.61;100143.07;1629735;86;21110;-84
2021/06/10 10:01:04;;;;;;;4.30;2.08;;;;;;;35.09;34.47;100135.37;1550948;92;21106;-85
2021/06/10 10:03:41;;;;;;;3.17;2.27;;;;;;;35.35;32.56;100141.89;1544793;92;21364;-83
2021/06/10 10:06:08;;;;;;;4.55;2.42;;;;;;;35.63;31.85;100141.15;1526777;92;21181;-85
2021/06/10 10:08:35;;;;;;;3.95;2.50;;;;;;;35.75;32.51;100138.83;1549828;91;27458;-86
2021/06/10 10:11:04;;;;;;;3.75;2.33;;;;;;;35.59;31.93;100138.27;1541906;92;21082;-83
2021/06/10 10:13:32;;;;;;;3.83;2.10;;;;;;;35.38;33.39;100143.19;1561399;91;21117;-84
2021/06/10 10:15:59;;;;;;;3.37;2.20;;;;;;;35.06;34.42;100139.05;1660064;85;21116;-85
2021/06/10 10:18:26;;;;;;;3.52;1.87;;;;;;;34.74;34.28;100137.22;1687200;84;20994;-84
2021/06/10 10:20:52;;;;;;;2.95;2.20;;;;;;;34.33;34.59;100130.14;1694062;84;21031;-86
2021/06/10 10:23:18;;;;;;;3.17;2.40;;;;;;;33.80;36.32;100130.66;1696344;84;21062;-85
2021/06/10 10:25:44;;;;;;;3.95;2.00;;;;;;;33.68;37.35;100125.72;1682914;84;20969;-83
2021/06/10 10:28:13;;;;;;;3.00;2.30;;;;;;;33.55;36.62;100128.96;1664789;84;21150;-86
2021/06/10 10:30:45;;;;;;;5.97;2.10;;;;;;;33.32;37.81;100127.75;1641062;87;21483;-85
2021/06/10 10:33:21;;;;;;;5.78;2.40;;;;;;;33.17;37.51;100122.25;1645043;87;21019;-85
2021/06/10 10:36:00;;;;;;;2.87;2.15;;;;;;;33.12;37.87;100125.52;1685871;84;21073;-85
2021/06/10 10:38:33;;;;;;;3.75;2.10;;;;;;;33.13;36.61;100123.71;1682213;84;21058;-86
2021/06/10 10:41:12;;;;;;;2.47;2.05;;;;;;;32.89;37.30;100118.72;1674835;84;21149;-85
2021/06/10 10:43:39;;;;;;;3.15;1.95;;;;;;;32.87;37.80;100126.72;1625412;87;21117;-86
2021/06/10 10:46:11;;;;;;;3.27;2.10;;;;;;;32.81;37.40;100121.44;1625344;88;20995;-86
2021/06/10 10:48:42;;;;;;;;;;;;;;;32.82;37.25;100116.03;1627952;88;20982;-86
2021/06/10 10:51:34;;;;;;;2.17;1.95;;;;;;;32.66;37.69;100113.12;1625146;88;20250;-86
2021/06/10 10:54:00;;;;;;;3.52;2.22;;;;;;;32.69;39.17;100115.06;1621929;88;21217;-86
2021/06/10 10:56:43;;;;;;;3.80;2.15;;;;;;;32.87;37.76;100115.55;1625230;88;21122;-86
2021/06/10 10:59:20;;;;;;;2.33;1.87;;;;;;;33.06;38.62;100114.05;1652227;86;21116;-85
2021/06/10 11:02:08;;;;;;;5.03;2.10;;;;;;;32.83;38.87;100116.23;1652406;86;21133;-86
2021/06/10 11:05:00;;;;;;;7.30;2.10;;;;;;;32.56;38.77;100117.05;1639251;86;21210;-85
2021/06/10 11:07:43;;;;;;;6.87;2.20;;;;;;;32.16;39.43;100111.83;1651259;85;22002;-84
2021/06/10 11:10:19;;;;;;;3.85;1.80;;;;;;;31.83;40.35;100116.22;1645137;86;21080;-85
2021/06/10 11:12:50;;;;;;;3.20;1.77;;;;;;;31.63;41.14;100111.87;1638453;85;21557;-85
2021/06/10 11:15:23;;;;;;;4.83;2.08;;;;;;;31.44;41.09;100112.67;1683538;83;21478;-85
2021/06/10 11:17:51;;;;;;;3.05;2.05;;;;;;;31.42;40.48;100109.51;1706918;84;21040;-81
2021/06/10 11:20:18;;;;;;;2.80;2.00;;;;;;;31.04;40.68;100113.45;1701760;84;21236;-87
2021/06/10 11:22:49;;;;;;;3.77;1.80;;;;;;;30.77;40.26;100107.08;1707848;84;21027;-85
2021/06/10 11:25:33;;;;;;;2.55;2.00;;;;;;;30.51;42.42;100105.08;1712844;83;21584;-81
2021/06/10 11:28:11;;;;;;;3.87;2.22;;;;;;;30.61;41.88;100104.80;1719388;83;21559;-88